Briefing drone pour Chevigny-saint-sauveur

Rechercher une autre localisation

Conditions de vol :


Nous sommes le : Jeudi 13 mai 2021
Il est 18:19 UTC (20:19 LT)

Lever de soleil : 03:38 UTC (05:38 LT)
Coucher de soleil : 19:32 UTC (21:32 LT)

Météo

L'essentiel des conditions de vol

VIGILANCE MÉTÉO FRANCE - Côte-dOr (21)
Vigilance Jaune : Orages
METAR de LFSD
LFSD 131800Z AUTO VRB02KT 9999 BKN029/// BKN040/// BKN080/// ///CB 14/07 Q1009

Date d'émission: 13/05/2021
Heure d'émission: 18:00 UTC
Vent: Variable 2 KT (4 km/h)
Visibilité horizontale: > 10 km
Plafond :
- Nuages morcelés à 2900ft (884m)
- Nuages morcelés à 4000ft (1219m)
- Nuages morcelés à 8000ft (2438m)
Température: 14 °C
Point de rosée: 7 °C
Humidité: 63%
Pression (QNH): 1009 hPa
TAF de LFSD
LFSD 010600Z 0100/0124 CNL

Conditions prévues :

Heure d'émission : Bulletin éffectué le 01 à 00:00 UTC
Prévision : Valide du 01 a 00:00 UTC au 01 a 23:59 UTC
Nuages : à 0ft (0 m)
WEBCAM POUR CHEVIGNY-SAINT-SAUVEUR

Réglementation

Voler en sécurité

CARTES AERONAUTIQUE 1/500.000
CARTES VAC (LFSD)
SUP AIP




Chargement des AIP...
NOTAM (CHEVIGNY-SAINT-SAUVEUR + Terrain à proximité / FIR )




Chargement des NOTAMS...
CONTACT PREFECTURE 21
Côte-dOr (21) : pref-drone@cote-dor.gouv.fr


Avertissement : Les données mises à disposition sont indicatives. Oxygène Drone ne pourra être tenu responsable de dégâts causés aux biens et aux personnes.